Orange, New Hampshire
Current Conditions -  °F | °C
As of 10:53 PM on Wednesday 22 Oct 2014 (Local Time) from KLEB Reporting Station
Overcast Overcast  
Wind Chill: 50°   Ceiling: 2500
Heat Index: 50°   Visibility: 10mi
Dew Point: 44°   Wind: 10mph
Humidity: 80%   Direction: 20°NNE
Pressure: 29.98"   Gusts: NA
Location:  43.6625°N, 72.0033°W
Report Text: KLEB 230253Z AUTO 02009KT 10SM OVC025 10/07 A2998 RMK AO2 SLP150 60001 T01000067 58017
Loading
Personal Weather Stations






























Interactive Weather Map
Tropical Storm Tracking
New forecast layout! Learn more

10-Day Weather Forecast

Advertisements
Track Severe Weather on mobile